sensor_id;sensor_type;location;lat;lon;timestamp;temperature;humidity
76102;SHT30;64830;46.910;6.354;2023-03-07T00:00:31;1.65;65.21
76102;SHT30;64830;46.910;6.354;2023-03-07T00:02:56;1.67;65.04
76102;SHT30;64830;46.910;6.354;2023-03-07T00:05:22;1.65;65.01
76102;SHT30;64830;46.910;6.354;2023-03-07T00:07:47;1.67;64.72
76102;SHT30;64830;46.910;6.354;2023-03-07T00:10:12;1.67;64.53
76102;SHT30;64830;46.910;6.354;2023-03-07T00:12:38;1.63;64.65
76102;SHT30;64830;46.910;6.354;2023-03-07T00:15:04;1.61;65.12
76102;SHT30;64830;46.910;6.354;2023-03-07T00:17:29;1.64;65.22
76102;SHT30;64830;46.910;6.354;2023-03-07T00:19:55;1.64;65.37
76102;SHT30;64830;46.910;6.354;2023-03-07T00:22:20;1.70;64.63
76102;SHT30;64830;46.910;6.354;2023-03-07T00:24:47;1.67;64.79
76102;SHT30;64830;46.910;6.354;2023-03-07T00:27:12;1.68;64.88
76102;SHT30;64830;46.910;6.354;2023-03-07T00:29:38;1.67;64.75
76102;SHT30;64830;46.910;6.354;2023-03-07T00:32:04;1.71;65.01
76102;SHT30;64830;46.910;6.354;2023-03-07T00:34:29;1.73;64.99
76102;SHT30;64830;46.910;6.354;2023-03-07T00:36:55;1.77;64.83
76102;SHT30;64830;46.910;6.354;2023-03-07T00:39:20;1.77;64.49
76102;SHT30;64830;46.910;6.354;2023-03-07T00:41:45;1.77;64.70
76102;SHT30;64830;46.910;6.354;2023-03-07T00:44:11;1.74;64.03
76102;SHT30;64830;46.910;6.354;2023-03-07T00:46:36;1.71;64.34
76102;SHT30;64830;46.910;6.354;2023-03-07T00:49:02;1.71;64.61
76102;SHT30;64830;46.910;6.354;2023-03-07T00:51:28;1.74;64.57
76102;SHT30;64830;46.910;6.354;2023-03-07T00:53:53;1.74;64.61
76102;SHT30;64830;46.910;6.354;2023-03-07T00:56:23;1.77;64.81
76102;SHT30;64830;46.910;6.354;2023-03-07T00:58:50;1.79;64.63
76102;SHT30;64830;46.910;6.354;2023-03-07T01:01:19;1.78;64.44
76102;SHT30;64830;46.910;6.354;2023-03-07T01:03:44;1.75;64.17
76102;SHT30;64830;46.910;6.354;2023-03-07T01:06:15;1.73;63.95
76102;SHT30;64830;46.910;6.354;2023-03-07T01:08:41;1.70;63.91
76102;SHT30;64830;46.910;6.354;2023-03-07T01:11:07;1.65;64.44
76102;SHT30;64830;46.910;6.354;2023-03-07T01:13:34;1.65;64.71
76102;SHT30;64830;46.910;6.354;2023-03-07T01:18:32;1.71;64.81
76102;SHT30;64830;46.910;6.354;2023-03-07T01:20:57;1.75;64.57
76102;SHT30;64830;46.910;6.354;2023-03-07T01:23:23;1.77;64.83
76102;SHT30;64830;46.910;6.354;2023-03-07T01:25:48;1.78;64.65
76102;SHT30;64830;46.910;6.354;2023-03-07T01:28:14;1.75;64.41
76102;SHT30;64830;46.910;6.354;2023-03-07T01:30:39;1.70;63.99
76102;SHT30;64830;46.910;6.354;2023-03-07T01:33:05;1.60;64.34
76102;SHT30;64830;46.910;6.354;2023-03-07T01:35:36;1.57;64.59
76102;SHT30;64830;46.910;6.354;2023-03-07T01:38:02;1.57;64.76
76102;SHT30;64830;46.910;6.354;2023-03-07T01:40:27;1.51;64.84
76102;SHT30;64830;46.910;6.354;2023-03-07T01:42:53;1.51;64.82
76102;SHT30;64830;46.910;6.354;2023-03-07T01:47:59;1.48;65.14
76102;SHT30;64830;46.910;6.354;2023-03-07T01:50:25;1.48;65.08
76102;SHT30;64830;46.910;6.354;2023-03-07T01:52:59;1.48;65.00
76102;SHT30;64830;46.910;6.354;2023-03-07T01:55:28;1.46;65.07
76102;SHT30;64830;46.910;6.354;2023-03-07T01:57:55;1.50;64.77
76102;SHT30;64830;46.910;6.354;2023-03-07T02:00:22;1.48;65.07
76102;SHT30;64830;46.910;6.354;2023-03-07T02:05:56;1.44;64.91
76102;SHT30;64830;46.910;6.354;2023-03-07T02:08:25;1.42;65.13
76102;SHT30;64830;46.910;6.354;2023-03-07T02:10:52;1.43;65.16
76102;SHT30;64830;46.910;6.354;2023-03-07T02:13:17;1.47;65.37
76102;SHT30;64830;46.910;6.354;2023-03-07T02:15:43;1.51;65.12
76102;SHT30;64830;46.910;6.354;2023-03-07T02:18:12;1.51;65.18
76102;SHT30;64830;46.910;6.354;2023-03-07T02:24:24;1.53;64.93
76102;SHT30;64830;46.910;6.354;2023-03-07T02:26:51;1.56;65.13
76102;SHT30;64830;46.910;6.354;2023-03-07T02:29:17;1.56;65.06
76102;SHT30;64830;46.910;6.354;2023-03-07T02:31:43;1.51;64.85
76102;SHT30;64830;46.910;6.354;2023-03-07T02:34:19;1.51;65.05
76102;SHT30;64830;46.910;6.354;2023-03-07T02:36:45;1.53;64.89
76102;SHT30;64830;46.910;6.354;2023-03-07T02:39:11;1.50;65.12
76102;SHT30;64830;46.910;6.354;2023-03-07T02:41:38;1.57;65.15
76102;SHT30;64830;46.910;6.354;2023-03-07T02:44:04;1.61;64.86
76102;SHT30;64830;46.910;6.354;2023-03-07T02:46:29;1.58;64.55
76102;SHT30;64830;46.910;6.354;2023-03-07T02:48:55;1.61;64.72
76102;SHT30;64830;46.910;6.354;2023-03-07T02:51:20;1.63;64.95
76102;SHT30;64830;46.910;6.354;2023-03-07T02:53:46;1.64;65.11
76102;SHT30;64830;46.910;6.354;2023-03-07T02:56:11;1.64;64.28
76102;SHT30;64830;46.910;6.354;2023-03-07T02:58:37;1.63;64.76
76102;SHT30;64830;46.910;6.354;2023-03-07T03:01:02;1.63;64.67
76102;SHT30;64830;46.910;6.354;2023-03-07T03:03:28;1.65;65.04
76102;SHT30;64830;46.910;6.354;2023-03-07T03:05:53;1.65;64.55
76102;SHT30;64830;46.910;6.354;2023-03-07T03:08:19;1.65;64.68
76102;SHT30;64830;46.910;6.354;2023-03-07T03:10:44;1.67;64.88
76102;SHT30;64830;46.910;6.354;2023-03-07T03:13:09;1.68;64.86
76102;SHT30;64830;46.910;6.354;2023-03-07T03:15:35;1.70;65.07
76102;SHT30;64830;46.910;6.354;2023-03-07T03:18:01;1.74;64.29
76102;SHT30;64830;46.910;6.354;2023-03-07T03:20:26;1.71;64.61
76102;SHT30;64830;46.910;6.354;2023-03-07T03:22:52;1.73;64.87
76102;SHT30;64830;46.910;6.354;2023-03-07T03:25:18;1.71;64.60
76102;SHT30;64830;46.910;6.354;2023-03-07T03:27:46;1.71;64.50
76102;SHT30;64830;46.910;6.354;2023-03-07T03:30:12;1.67;64.80
76102;SHT30;64830;46.910;6.354;2023-03-07T03:32:39;1.70;64.55
76102;SHT30;64830;46.910;6.354;2023-03-07T03:35:05;1.61;64.60
76102;SHT30;64830;46.910;6.354;2023-03-07T03:37:31;1.58;64.84
76102;SHT30;64830;46.910;6.354;2023-03-07T03:39:57;1.51;65.09
76102;SHT30;64830;46.910;6.354;2023-03-07T03:42:22;1.50;65.07
76102;SHT30;64830;46.910;6.354;2023-03-07T03:44:48;1.48;65.35
76102;SHT30;64830;46.910;6.354;2023-03-07T03:47:14;1.47;65.35
76102;SHT30;64830;46.910;6.354;2023-03-07T03:49:39;1.47;65.56
76102;SHT30;64830;46.910;6.354;2023-03-07T03:52:05;1.43;65.32
76102;SHT30;64830;46.910;6.354;2023-03-07T03:54:30;1.42;65.42
76102;SHT30;64830;46.910;6.354;2023-03-07T03:56:56;1.44;65.66
76102;SHT30;64830;46.910;6.354;2023-03-07T03:59:21;1.47;65.55
76102;SHT30;64830;46.910;6.354;2023-03-07T04:01:47;1.47;65.33
76102;SHT30;64830;46.910;6.354;2023-03-07T04:04:13;1.50;65.31
76102;SHT30;64830;46.910;6.354;2023-03-07T04:06:39;1.47;65.03
76102;SHT30;64830;46.910;6.354;2023-03-07T04:09:07;1.48;65.09
76102;SHT30;64830;46.910;6.354;2023-03-07T04:11:33;1.53;65.15
76102;SHT30;64830;46.910;6.354;2023-03-07T04:13:59;1.57;65.26
76102;SHT30;64830;46.910;6.354;2023-03-07T04:16:24;1.57;65.05
76102;SHT30;64830;46.910;6.354;2023-03-07T04:18:50;1.57;64.54
76102;SHT30;64830;46.910;6.354;2023-03-07T04:21:17;1.58;64.82
76102;SHT30;64830;46.910;6.354;2023-03-07T04:23:42;1.57;64.30
76102;SHT30;64830;46.910;6.354;2023-03-07T04:26:08;1.58;64.72
76102;SHT30;64830;46.910;6.354;2023-03-07T04:28:37;1.60;64.63
76102;SHT30;64830;46.910;6.354;2023-03-07T04:31:22;1.58;64.40
76102;SHT30;64830;46.910;6.354;2023-03-07T04:33:48;1.54;63.79
76102;SHT30;64830;46.910;6.354;2023-03-07T04:36:15;1.51;64.27
76102;SHT30;64830;46.910;6.354;2023-03-07T04:38:41;1.54;64.64
76102;SHT30;64830;46.910;6.354;2023-03-07T04:41:07;1.54;64.81
76102;SHT30;64830;46.910;6.354;2023-03-07T04:43:35;1.54;64.38
76102;SHT30;64830;46.910;6.354;2023-03-07T04:46:00;1.57;64.67
76102;SHT30;64830;46.910;6.354;2023-03-07T04:48:26;1.54;64.69
76102;SHT30;64830;46.910;6.354;2023-03-07T04:50:51;1.56;64.50
76102;SHT30;64830;46.910;6.354;2023-03-07T04:53:18;1.56;64.58
76102;SHT30;64830;46.910;6.354;2023-03-07T04:55:44;1.60;64.59
76102;SHT30;64830;46.910;6.354;2023-03-07T04:58:09;1.60;64.34
76102;SHT30;64830;46.910;6.354;2023-03-07T05:00:44;1.54;64.27
76102;SHT30;64830;46.910;6.354;2023-03-07T05:03:11;1.54;64.56
76102;SHT30;64830;46.910;6.354;2023-03-07T05:05:37;1.56;64.57
76102;SHT30;64830;46.910;6.354;2023-03-07T05:08:04;1.53;64.46
76102;SHT30;64830;46.910;6.354;2023-03-07T05:10:31;1.51;64.58
76102;SHT30;64830;46.910;6.354;2023-03-07T05:12:56;1.51;64.51
76102;SHT30;64830;46.910;6.354;2023-03-07T05:15:22;1.51;64.58
76102;SHT30;64830;46.910;6.354;2023-03-07T05:17:47;1.50;64.49
76102;SHT30;64830;46.910;6.354;2023-03-07T05:20:13;1.50;64.67
76102;SHT30;64830;46.910;6.354;2023-03-07T05:22:38;1.46;64.83
76102;SHT30;64830;46.910;6.354;2023-03-07T05:25:04;1.47;64.72
76102;SHT30;64830;46.910;6.354;2023-03-07T05:27:30;1.44;65.05
76102;SHT30;64830;46.910;6.354;2023-03-07T05:29:55;1.44;64.94
76102;SHT30;64830;46.910;6.354;2023-03-07T05:32:21;1.44;64.81
76102;SHT30;64830;46.910;6.354;2023-03-07T05:34:46;1.43;64.87
76102;SHT30;64830;46.910;6.354;2023-03-07T05:37:12;1.43;64.74
76102;SHT30;64830;46.910;6.354;2023-03-07T05:39:38;1.44;64.90
76102;SHT30;64830;46.910;6.354;2023-03-07T05:42:03;1.42;64.73
76102;SHT30;64830;46.910;6.354;2023-03-07T05:44:29;1.37;64.67
76102;SHT30;64830;46.910;6.354;2023-03-07T05:46:54;1.36;65.01
76102;SHT30;64830;46.910;6.354;2023-03-07T05:49:20;1.37;64.97
76102;SHT30;64830;46.910;6.354;2023-03-07T05:51:45;1.36;65.10
76102;SHT30;64830;46.910;6.354;2023-03-07T05:54:11;1.37;65.05
76102;SHT30;64830;46.910;6.354;2023-03-07T05:56:36;1.37;65.02
76102;SHT30;64830;46.910;6.354;2023-03-07T05:59:02;1.39;65.02
76102;SHT30;64830;46.910;6.354;2023-03-07T06:01:28;1.42;65.05
76102;SHT30;64830;46.910;6.354;2023-03-07T06:03:53;1.44;64.78
76102;SHT30;64830;46.910;6.354;2023-03-07T06:06:18;1.46;64.84
76102;SHT30;64830;46.910;6.354;2023-03-07T06:08:44;1.50;64.84
76102;SHT30;64830;46.910;6.354;2023-03-07T06:11:09;1.47;64.84
76102;SHT30;64830;46.910;6.354;2023-03-07T06:13:35;1.50;64.82
76102;SHT30;64830;46.910;6.354;2023-03-07T06:16:00;1.54;64.77
76102;SHT30;64830;46.910;6.354;2023-03-07T06:18:26;1.54;64.91
76102;SHT30;64830;46.910;6.354;2023-03-07T06:21:03;1.60;65.03
76102;SHT30;64830;46.910;6.354;2023-03-07T06:23:32;1.61;64.95
76102;SHT30;64830;46.910;6.354;2023-03-07T06:25:58;1.65;65.09
76102;SHT30;64830;46.910;6.354;2023-03-07T06:28:24;1.67;64.93
76102;SHT30;64830;46.910;6.354;2023-03-07T06:30:50;1.71;65.20
76102;SHT30;64830;46.910;6.354;2023-03-07T06:33:16;1.71;65.12
76102;SHT30;64830;46.910;6.354;2023-03-07T06:35:42;1.77;64.96
76102;SHT30;64830;46.910;6.354;2023-03-07T06:38:09;1.75;65.30
76102;SHT30;64830;46.910;6.354;2023-03-07T06:40:35;1.81;64.96
76102;SHT30;64830;46.910;6.354;2023-03-07T06:43:01;1.85;65.13
76102;SHT30;64830;46.910;6.354;2023-03-07T06:45:26;1.88;65.09
76102;SHT30;64830;46.910;6.354;2023-03-07T06:47:52;1.98;65.01
76102;SHT30;64830;46.910;6.354;2023-03-07T06:50:17;2.02;64.70
76102;SHT30;64830;46.910;6.354;2023-03-07T06:52:43;2.08;64.31
76102;SHT30;64830;46.910;6.354;2023-03-07T06:55:09;2.16;64.13
76102;SHT30;64830;46.910;6.354;2023-03-07T06:57:34;2.13;63.49
76102;SHT30;64830;46.910;6.354;2023-03-07T07:00:01;2.13;63.85
76102;SHT30;64830;46.910;6.354;2023-03-07T07:02:27;2.15;63.92
76102;SHT30;64830;46.910;6.354;2023-03-07T07:04:52;2.20;63.85
76102;SHT30;64830;46.910;6.354;2023-03-07T07:07:18;2.20;63.71
76102;SHT30;64830;46.910;6.354;2023-03-07T07:09:43;2.20;63.79
76102;SHT30;64830;46.910;6.354;2023-03-07T07:12:08;2.23;64.15
76102;SHT30;64830;46.910;6.354;2023-03-07T07:14:34;2.27;63.81
76102;SHT30;64830;46.910;6.354;2023-03-07T07:16:59;2.29;63.73
76102;SHT30;64830;46.910;6.354;2023-03-07T07:19:25;2.34;63.67
76102;SHT30;64830;46.910;6.354;2023-03-07T07:21:52;2.34;63.55
76102;SHT30;64830;46.910;6.354;2023-03-07T07:24:18;2.40;63.48
76102;SHT30;64830;46.910;6.354;2023-03-07T07:26:43;2.41;63.41
76102;SHT30;64830;46.910;6.354;2023-03-07T07:29:09;2.46;63.32
76102;SHT30;64830;46.910;6.354;2023-03-07T07:31:35;2.50;63.62
76102;SHT30;64830;46.910;6.354;2023-03-07T07:34:00;2.51;63.55
76102;SHT30;64830;46.910;6.354;2023-03-07T07:36:25;2.57;63.36
76102;SHT30;64830;46.910;6.354;2023-03-07T07:38:51;2.58;63.21
76102;SHT30;64830;46.910;6.354;2023-03-07T07:41:16;2.61;63.14
76102;SHT30;64830;46.910;6.354;2023-03-07T07:43:45;2.62;63.13
76102;SHT30;64830;46.910;6.354;2023-03-07T07:46:15;2.64;63.37
76102;SHT30;64830;46.910;6.354;2023-03-07T07:48:40;2.65;63.34
76102;SHT30;64830;46.910;6.354;2023-03-07T07:51:06;2.70;63.08
76102;SHT30;64830;46.910;6.354;2023-03-07T07:53:32;2.74;62.33
76102;SHT30;64830;46.910;6.354;2023-03-07T07:55:57;2.68;62.89
76102;SHT30;64830;46.910;6.354;2023-03-07T07:58:23;2.66;61.96
76102;SHT30;64830;46.910;6.354;2023-03-07T08:00:48;2.60;62.52
76102;SHT30;64830;46.910;6.354;2023-03-07T08:03:14;2.53;62.51
76102;SHT30;64830;46.910;6.354;2023-03-07T08:05:43;2.51;62.74
76102;SHT30;64830;46.910;6.354;2023-03-07T08:08:09;2.50;62.36
76102;SHT30;64830;46.910;6.354;2023-03-07T08:10:34;2.46;61.82
76102;SHT30;64830;46.910;6.354;2023-03-07T08:13:01;2.41;62.11
76102;SHT30;64830;46.910;6.354;2023-03-07T08:15:27;2.33;62.57
76102;SHT30;64830;46.910;6.354;2023-03-07T08:17:52;2.38;63.01
76102;SHT30;64830;46.910;6.354;2023-03-07T08:20:18;2.44;62.31
76102;SHT30;64830;46.910;6.354;2023-03-07T08:22:48;2.47;62.56
76102;SHT30;64830;46.910;6.354;2023-03-07T08:25:19;2.48;62.72
76102;SHT30;64830;46.910;6.354;2023-03-07T08:27:47;2.51;62.17
76102;SHT30;64830;46.910;6.354;2023-03-07T08:30:13;2.51;62.65
76102;SHT30;64830;46.910;6.354;2023-03-07T08:32:39;2.54;62.35
76102;SHT30;64830;46.910;6.354;2023-03-07T08:35:05;2.60;62.10
76102;SHT30;64830;46.910;6.354;2023-03-07T08:37:30;2.58;62.24
76102;SHT30;64830;46.910;6.354;2023-03-07T08:39:56;2.70;62.78
76102;SHT30;64830;46.910;6.354;2023-03-07T08:42:21;2.82;61.54
76102;SHT30;64830;46.910;6.354;2023-03-07T08:44:46;2.87;61.47
76102;SHT30;64830;46.910;6.354;2023-03-07T08:47:12;2.87;61.71
76102;SHT30;64830;46.910;6.354;2023-03-07T08:49:38;3.02;61.99
76102;SHT30;64830;46.910;6.354;2023-03-07T08:52:04;3.20;61.74
76102;SHT30;64830;46.910;6.354;2023-03-07T08:54:30;3.40;61.82
76102;SHT30;64830;46.910;6.354;2023-03-07T08:56:56;3.53;61.23
76102;SHT30;64830;46.910;6.354;2023-03-07T08:59:22;3.58;59.79
76102;SHT30;64830;46.910;6.354;2023-03-07T09:01:48;3.57;60.02
76102;SHT30;64830;46.910;6.354;2023-03-07T09:04:13;3.54;60.24
76102;SHT30;64830;46.910;6.354;2023-03-07T09:06:38;3.65;61.11
76102;SHT30;64830;46.910;6.354;2023-03-07T09:09:04;3.79;60.16
76102;SHT30;64830;46.910;6.354;2023-03-07T09:11:30;3.85;58.63
76102;SHT30;64830;46.910;6.354;2023-03-07T09:13:56;3.86;59.91
76102;SHT30;64830;46.910;6.354;2023-03-07T09:16:21;3.86;59.12
76102;SHT30;64830;46.910;6.354;2023-03-07T09:18:47;3.81;59.86
76102;SHT30;64830;46.910;6.354;2023-03-07T09:21:13;3.93;59.41
76102;SHT30;64830;46.910;6.354;2023-03-07T09:23:38;4.00;59.03
76102;SHT30;64830;46.910;6.354;2023-03-07T09:26:04;3.93;59.14
76102;SHT30;64830;46.910;6.354;2023-03-07T09:28:30;3.99;60.22
76102;SHT30;64830;46.910;6.354;2023-03-07T09:30:56;4.09;59.42
76102;SHT30;64830;46.910;6.354;2023-03-07T09:33:21;4.19;59.19
76102;SHT30;64830;46.910;6.354;2023-03-07T09:35:47;4.27;58.81
76102;SHT30;64830;46.910;6.354;2023-03-07T09:38:12;4.41;59.22
76102;SHT30;64830;46.910;6.354;2023-03-07T09:40:38;4.47;58.88
76102;SHT30;64830;46.910;6.354;2023-03-07T09:50:54;4.60;58.05
76102;SHT30;64830;46.910;6.354;2023-03-07T09:55:58;4.58;57.99
76102;SHT30;64830;46.910;6.354;2023-03-07T09:58:26;4.58;57.48
76102;SHT30;64830;46.910;6.354;2023-03-07T10:00:56;4.67;58.61
76102;SHT30;64830;46.910;6.354;2023-03-07T10:03:36;4.76;57.15
76102;SHT30;64830;46.910;6.354;2023-03-07T10:06:15;4.67;58.00
76102;SHT30;64830;46.910;6.354;2023-03-07T10:08:43;4.67;57.41
76102;SHT30;64830;46.910;6.354;2023-03-07T10:11:28;4.55;57.91
76102;SHT30;64830;46.910;6.354;2023-03-07T10:19:35;4.81;58.05
76102;SHT30;64830;46.910;6.354;2023-03-07T10:27:25;5.01;57.87
76102;SHT30;64830;46.910;6.354;2023-03-07T10:29:54;5.03;57.96
76102;SHT30;64830;46.910;6.354;2023-03-07T10:40:23;5.28;57.33
76102;SHT30;64830;46.910;6.354;2023-03-07T10:42:49;5.41;56.31
76102;SHT30;64830;46.910;6.354;2023-03-07T10:45:15;5.35;56.11
76102;SHT30;64830;46.910;6.354;2023-03-07T10:47:41;5.27;57.84
76102;SHT30;64830;46.910;6.354;2023-03-07T10:52:52;5.45;57.75
76102;SHT30;64830;46.910;6.354;2023-03-07T11:03:39;5.56;57.44
76102;SHT30;64830;46.910;6.354;2023-03-07T11:06:05;5.62;57.36
76102;SHT30;64830;46.910;6.354;2023-03-07T11:08:34;5.63;57.48
76102;SHT30;64830;46.910;6.354;2023-03-07T11:11:02;5.72;57.20
76102;SHT30;64830;46.910;6.354;2023-03-07T11:13:29;5.75;57.52
76102;SHT30;64830;46.910;6.354;2023-03-07T11:18:40;5.92;56.92
76102;SHT30;64830;46.910;6.354;2023-03-07T11:24:19;5.45;57.35
76102;SHT30;64830;46.910;6.354;2023-03-07T11:26:45;5.37;58.43
76102;SHT30;64830;46.910;6.354;2023-03-07T11:29:12;5.33;58.27
76102;SHT30;64830;46.910;6.354;2023-03-07T11:34:52;5.33;58.83
76102;SHT30;64830;46.910;6.354;2023-03-07T11:42:40;5.35;58.95
76102;SHT30;64830;46.910;6.354;2023-03-07T11:45:47;5.44;59.00
76102;SHT30;64830;46.910;6.354;2023-03-07T11:51:46;5.37;58.98
76102;SHT30;64830;46.910;6.354;2023-03-07T12:11:42;5.13;59.63
76102;SHT30;64830;46.910;6.354;2023-03-07T12:25:31;5.06;59.81
76102;SHT30;64830;46.910;6.354;2023-03-07T12:33:47;5.01;59.79
76102;SHT30;64830;46.910;6.354;2023-03-07T12:36:28;5.05;59.93
76102;SHT30;64830;46.910;6.354;2023-03-07T12:39:04;5.01;60.00
76102;SHT30;64830;46.910;6.354;2023-03-07T12:44:55;4.99;60.36
76102;SHT30;64830;46.910;6.354;2023-03-07T12:47:56;5.05;60.00
76102;SHT30;64830;46.910;6.354;2023-03-07T12:50:29;5.05;60.30
76102;SHT30;64830;46.910;6.354;2023-03-07T12:55:57;5.19;59.77
76102;SHT30;64830;46.910;6.354;2023-03-07T12:59:14;5.17;58.68
76102;SHT30;64830;46.910;6.354;2023-03-07T13:04:41;5.20;58.93
76102;SHT30;64830;46.910;6.354;2023-03-07T13:07:13;5.23;58.94
76102;SHT30;64830;46.910;6.354;2023-03-07T13:09:45;5.15;59.05
76102;SHT30;64830;46.910;6.354;2023-03-07T13:19:52;5.09;59.77
76102;SHT30;64830;46.910;6.354;2023-03-07T13:24:58;5.06;59.97
76102;SHT30;64830;46.910;6.354;2023-03-07T13:58:38;4.99;59.65
76102;SHT30;64830;46.910;6.354;2023-03-07T14:01:15;4.92;59.37
76102;SHT30;64830;46.910;6.354;2023-03-07T14:03:46;4.90;59.93
76102;SHT30;64830;46.910;6.354;2023-03-07T14:06:20;4.88;60.18
76102;SHT30;64830;46.910;6.354;2023-03-07T14:08:46;4.85;59.93
76102;SHT30;64830;46.910;6.354;2023-03-07T14:16:45;4.78;60.58
76102;SHT30;64830;46.910;6.354;2023-03-07T14:21:59;4.86;60.35
76102;SHT30;64830;46.910;6.354;2023-03-07T14:27:12;4.76;61.36
76102;SHT30;64830;46.910;6.354;2023-03-07T14:29:49;4.69;60.89
76102;SHT30;64830;46.910;6.354;2023-03-07T14:32:30;4.64;60.81
76102;SHT30;64830;46.910;6.354;2023-03-07T14:34:56;4.68;60.96
76102;SHT30;64830;46.910;6.354;2023-03-07T14:37:27;4.65;61.04
76102;SHT30;64830;46.910;6.354;2023-03-07T14:45:31;4.57;61.97
76102;SHT30;64830;46.910;6.354;2023-03-07T14:50:43;4.40;62.32
76102;SHT30;64830;46.910;6.354;2023-03-07T14:53:25;4.36;62.46
76102;SHT30;64830;46.910;6.354;2023-03-07T14:55:53;4.40;62.86
76102;SHT30;64830;46.910;6.354;2023-03-07T14:58:28;4.33;63.08
76102;SHT30;64830;46.910;6.354;2023-03-07T15:01:00;4.24;63.09
76102;SHT30;64830;46.910;6.354;2023-03-07T15:03:26;4.20;63.30
76102;SHT30;64830;46.910;6.354;2023-03-07T15:05:57;4.19;63.32
76102;SHT30;64830;46.910;6.354;2023-03-07T15:08:27;4.17;63.97
76102;SHT30;64830;46.910;6.354;2023-03-07T15:11:43;4.09;63.74
76102;SHT30;64830;46.910;6.354;2023-03-07T15:15:02;4.10;63.58
76102;SHT30;64830;46.910;6.354;2023-03-07T15:17:26;4.06;64.07
76102;SHT30;64830;46.910;6.354;2023-03-07T15:22:30;3.96;64.20
76102;SHT30;64830;46.910;6.354;2023-03-07T15:24:57;3.82;64.35
76102;SHT30;64830;46.910;6.354;2023-03-07T15:27:26;3.77;64.86
76102;SHT30;64830;46.910;6.354;2023-03-07T15:29:54;3.72;65.13
76102;SHT30;64830;46.910;6.354;2023-03-07T15:32:38;3.63;65.44
76102;SHT30;64830;46.910;6.354;2023-03-07T15:37:34;3.51;65.54
76102;SHT30;64830;46.910;6.354;2023-03-07T15:40:27;3.47;65.96
76102;SHT30;64830;46.910;6.354;2023-03-07T15:43:23;3.41;66.39
76102;SHT30;64830;46.910;6.354;2023-03-07T15:46:01;3.38;66.41
76102;SHT30;64830;46.910;6.354;2023-03-07T15:48:50;3.34;66.38
76102;SHT30;64830;46.910;6.354;2023-03-07T15:51:19;3.30;66.87
76102;SHT30;64830;46.910;6.354;2023-03-07T15:53:54;3.29;66.99
76102;SHT30;64830;46.910;6.354;2023-03-07T15:56:34;3.20;67.43
76102;SHT30;64830;46.910;6.354;2023-03-07T15:59:27;3.06;67.78
76102;SHT30;64830;46.910;6.354;2023-03-07T16:01:53;3.06;68.03
76102;SHT30;64830;46.910;6.354;2023-03-07T16:06:59;2.99;68.17
76102;SHT30;64830;46.910;6.354;2023-03-07T16:09:25;3.05;68.05
76102;SHT30;64830;46.910;6.354;2023-03-07T16:11:50;3.05;67.78
76102;SHT30;64830;46.910;6.354;2023-03-07T16:16:50;2.99;67.99
76102;SHT30;64830;46.910;6.354;2023-03-07T16:19:15;2.96;67.97
76102;SHT30;64830;46.910;6.354;2023-03-07T16:21:41;2.96;68.00
76102;SHT30;64830;46.910;6.354;2023-03-07T16:24:06;2.95;67.86
76102;SHT30;64830;46.910;6.354;2023-03-07T16:26:32;2.93;68.22
76102;SHT30;64830;46.910;6.354;2023-03-07T16:28:59;2.95;68.33
76102;SHT30;64830;46.910;6.354;2023-03-07T16:31:25;2.95;68.52
76102;SHT30;64830;46.910;6.354;2023-03-07T16:33:51;2.95;68.50
76102;SHT30;64830;46.910;6.354;2023-03-07T16:36:16;2.93;68.43
76102;SHT30;64830;46.910;6.354;2023-03-07T16:38:42;2.95;68.41
76102;SHT30;64830;46.910;6.354;2023-03-07T16:41:19;2.93;68.37
76102;SHT30;64830;46.910;6.354;2023-03-07T16:43:46;2.93;68.40
76102;SHT30;64830;46.910;6.354;2023-03-07T16:46:16;2.95;68.45
76102;SHT30;64830;46.910;6.354;2023-03-07T16:48:43;2.95;68.44
76102;SHT30;64830;46.910;6.354;2023-03-07T16:51:19;2.93;68.75
76102;SHT30;64830;46.910;6.354;2023-03-07T16:53:47;2.93;68.68
76102;SHT30;64830;46.910;6.354;2023-03-07T16:56:27;2.93;68.87
76102;SHT30;64830;46.910;6.354;2023-03-07T16:58:53;2.95;68.76
76102;SHT30;64830;46.910;6.354;2023-03-07T17:01:19;2.93;68.84
76102;SHT30;64830;46.910;6.354;2023-03-07T17:03:44;2.92;69.46
76102;SHT30;64830;46.910;6.354;2023-03-07T17:06:14;2.87;69.39
76102;SHT30;64830;46.910;6.354;2023-03-07T17:08:41;2.88;69.58
76102;SHT30;64830;46.910;6.354;2023-03-07T17:11:17;2.84;69.59
76102;SHT30;64830;46.910;6.354;2023-03-07T17:13:44;2.85;69.54
76102;SHT30;64830;46.910;6.354;2023-03-07T17:16:17;2.85;69.83
76102;SHT30;64830;46.910;6.354;2023-03-07T17:18:43;2.92;69.23
76102;SHT30;64830;46.910;6.354;2023-03-07T17:21:17;2.92;69.19
76102;SHT30;64830;46.910;6.354;2023-03-07T17:23:43;2.96;69.30
76102;SHT30;64830;46.910;6.354;2023-03-07T17:26:30;2.96;69.22
76102;SHT30;64830;46.910;6.354;2023-03-07T17:29:01;2.98;69.34
76102;SHT30;64830;46.910;6.354;2023-03-07T17:31:27;2.98;69.43
76102;SHT30;64830;46.910;6.354;2023-03-07T17:33:53;2.93;69.29
76102;SHT30;64830;46.910;6.354;2023-03-07T17:36:18;2.92;69.32
76102;SHT30;64830;46.910;6.354;2023-03-07T17:38:44;2.89;69.57
76102;SHT30;64830;46.910;6.354;2023-03-07T17:41:09;2.92;69.69
76102;SHT30;64830;46.910;6.354;2023-03-07T17:43:34;2.87;69.89
76102;SHT30;64830;46.910;6.354;2023-03-07T17:46:00;2.84;70.14
76102;SHT30;64830;46.910;6.354;2023-03-07T17:48:26;2.81;70.37
76102;SHT30;64830;46.910;6.354;2023-03-07T17:50:51;2.80;70.37
76102;SHT30;64830;46.910;6.354;2023-03-07T17:53:17;2.80;70.65
76102;SHT30;64830;46.910;6.354;2023-03-07T17:55:42;2.72;70.79
76102;SHT30;64830;46.910;6.354;2023-03-07T17:58:08;2.77;70.49
76102;SHT30;64830;46.910;6.354;2023-03-07T18:00:35;2.80;70.65
76102;SHT30;64830;46.910;6.354;2023-03-07T18:03:01;2.82;70.59
76102;SHT30;64830;46.910;6.354;2023-03-07T18:05:26;2.87;70.39
76102;SHT30;64830;46.910;6.354;2023-03-07T18:07:52;2.92;70.86
76102;SHT30;64830;46.910;6.354;2023-03-07T18:10:18;2.91;71.02
76102;SHT30;64830;46.910;6.354;2023-03-07T18:12:44;2.91;71.08
76102;SHT30;64830;46.910;6.354;2023-03-07T18:15:15;2.88;71.68
76102;SHT30;64830;46.910;6.354;2023-03-07T18:17:41;2.87;71.82
76102;SHT30;64830;46.910;6.354;2023-03-07T18:20:07;2.82;71.67
76102;SHT30;64830;46.910;6.354;2023-03-07T18:22:36;2.84;71.67
76102;SHT30;64830;46.910;6.354;2023-03-07T18:25:04;2.81;72.15
76102;SHT30;64830;46.910;6.354;2023-03-07T18:27:29;2.74;73.33
76102;SHT30;64830;46.910;6.354;2023-03-07T18:29:55;2.70;74.23
76102;SHT30;64830;46.910;6.354;2023-03-07T18:32:20;2.64;73.50
76102;SHT30;64830;46.910;6.354;2023-03-07T18:34:46;2.68;73.41
76102;SHT30;64830;46.910;6.354;2023-03-07T18:37:11;2.68;75.50
76102;SHT30;64830;46.910;6.354;2023-03-07T18:39:38;2.62;75.87
76102;SHT30;64830;46.910;6.354;2023-03-07T18:42:04;2.57;75.14
76102;SHT30;64830;46.910;6.354;2023-03-07T18:44:29;2.57;74.98
76102;SHT30;64830;46.910;6.354;2023-03-07T18:46:55;2.61;74.65
76102;SHT30;64830;46.910;6.354;2023-03-07T18:49:20;2.61;76.02
76102;SHT30;64830;46.910;6.354;2023-03-07T18:51:46;2.58;75.24
76102;SHT30;64830;46.910;6.354;2023-03-07T18:54:12;2.58;76.10